Time;durP1;ratioP1;P1;durP2;ratioP2;P2;SDS_P1;SDS_P2;PMS_P1;PMS_P2;Temp;Humidity;BMP_temperature;BMP_pressure;BME280_temperature;BME280_humidity;BME280_pressure;Samples;Min_cycle;Max_cycle;Signal;HPM_P1;HPM_P2
2022/06/15 00:00:00;;;;;;;2.64;2.44;;;;;;;23.71;56.12;100389.44;481905;110;922543;-75
2022/06/15 00:01:07;;;;;;;3.96;2.33;;;;;;;23.70;56.13;100380.26;481915;109;922521;-77
2022/06/15 00:02:10;;;;;;;3.57;2.06;;;;;;;23.69;56.24;100387.78;481138;110;922709;-76
2022/06/15 00:03:14;;;;;;;3.08;2.27;;;;;;;23.69;56.15;100384.17;478879;109;923460;-77
2022/06/15 00:04:17;;;;;;;2.94;2.39;;;;;;;23.70;56.19;100380.26;481844;109;922622;-77
2022/06/15 00:05:20;;;;;;;3.12;2.33;;;;;;;23.68;56.21;100391.69;476331;110;930312;-79
2022/06/15 00:06:25;;;;;;;2.33;2.10;;;;;;;23.69;56.17;100390.56;474188;111;922772;-76
2022/06/15 00:07:28;;;;;;;3.76;2.50;;;;;;;23.69;56.18;100395.30;474552;110;923806;-78
2022/06/15 00:08:31;;;;;;;3.20;2.46;;;;;;;23.68;56.17;100393.65;481905;110;922531;-79
2022/06/15 00:09:35;;;;;;;3.03;2.40;;;;;;;23.65;56.18;100395.07;481900;110;922585;-75
2022/06/15 00:10:39;;;;;;;3.75;2.36;;;;;;;23.63;56.14;100402.92;475617;109;922894;-76
2022/06/15 00:11:43;;;;;;;2.33;2.16;;;;;;;23.61;56.18;100387.64;473476;111;922553;-76
2022/06/15 00:12:47;;;;;;;2.69;2.49;;;;;;;23.58;56.25;100391.88;468197;111;923415;-77
2022/06/15 00:13:52;;;;;;;4.92;2.44;;;;;;;23.56;56.25;100396.92;475847;109;922629;-76
2022/06/15 00:14:55;;;;;;;3.02;2.41;;;;;;;23.56;56.34;100393.30;481640;109;923144;-77
2022/06/15 00:15:58;;;;;;;2.56;2.36;;;;;;;23.52;56.30;100395.89;481917;109;922530;-75
2022/06/15 00:17:02;;;;;;;2.67;2.47;;;;;;;23.50;56.36;100395.35;481885;110;922994;-75
2022/06/15 00:18:05;;;;;;;4.92;2.64;;;;;;;23.49;56.33;100401.22;481755;109;923334;-74
2022/06/15 00:19:09;;;;;;;4.29;2.94;;;;;;;23.47;56.28;100407.11;481897;110;922555;-75
2022/06/15 00:20:13;;;;;;;2.81;2.53;;;;;;;23.44;56.31;100409.63;481715;109;922886;-75
2022/06/15 00:21:18;;;;;;;4.71;2.94;;;;;;;23.40;56.37;100409.41;480372;109;922534;-76
2022/06/15 00:22:21;;;;;;;3.99;2.81;;;;;;;23.37;56.45;100410.03;480678;110;922746;-74
2022/06/15 00:23:26;;;;;;;2.79;2.52;;;;;;;23.34;56.50;100405.06;481921;109;923196;-76
2022/06/15 00:24:29;;;;;;;2.81;2.59;;;;;;;23.32;56.50;100406.52;481667;109;923374;-76
2022/06/15 00:25:32;;;;;;;4.87;2.52;;;;;;;23.28;56.64;100395.97;481756;109;930371;-78
2022/06/15 00:26:36;;;;;;;3.49;3.26;;;;;;;23.28;56.80;100400.70;481855;110;922535;-77
2022/06/15 00:27:39;;;;;;;3.77;3.19;;;;;;;23.27;56.76;100397.09;481854;110;922574;-78
2022/06/15 00:28:42;;;;;;;3.57;3.23;;;;;;;23.26;56.69;100400.20;474128;111;922611;-77
2022/06/15 00:29:45;;;;;;;4.76;3.25;;;;;;;23.25;56.68;100401.33;463198;112;922631;-77
2022/06/15 00:30:52;;;;;;;4.22;2.94;;;;;;;23.23;56.57;100403.58;474553;109;922809;-75
2022/06/15 00:31:56;;;;;;;3.56;3.06;;;;;;;23.21;56.55;100403.08;474649;109;922735;-77
2022/06/15 00:33:00;;;;;;;4.61;2.95;;;;;;;23.19;56.58;100406.15;474126;111;922594;-75
2022/06/15 00:34:03;;;;;;;3.75;2.71;;;;;;;23.18;56.64;100406.45;466008;112;923037;-75
2022/06/15 00:35:07;;;;;;;4.37;2.60;;;;;;;23.18;56.70;100398.09;486096;108;922588;-76
2022/06/15 00:36:13;;;;;;;3.73;3.35;;;;;;;23.18;56.74;100409.23;490240;108;930487;-77
2022/06/15 00:37:17;;;;;;;3.43;2.78;;;;;;;23.17;56.72;100402.83;487181;108;923044;-76
2022/06/15 00:38:20;;;;;;;5.06;2.84;;;;;;;23.17;56.71;100404.78;490356;108;922665;-74
2022/06/15 00:39:32;;;;;;;3.34;2.86;;;;;;;23.15;56.74;100405.11;477503;110;922620;-75
2022/06/15 00:40:35;;;;;;;6.16;3.43;;;;;;;23.13;56.80;100396.23;481720;110;923334;-76
2022/06/15 00:41:39;;;;;;;3.28;2.51;;;;;;;23.13;56.80;100396.23;481747;110;930563;-76
2022/06/15 00:42:42;;;;;;;5.08;3.13;;;;;;;23.15;56.87;100407.89;481788;110;930449;-76
2022/06/15 00:44:00;;;;;;;4.68;2.71;;;;;;;23.13;56.97;100401.80;481816;110;922884;-75
2022/06/15 00:45:03;;;;;;;3.34;3.01;;;;;;;23.13;57.06;100412.92;478125;109;922624;-76
2022/06/15 00:46:17;;;;;;;4.16;2.62;;;;;;;23.12;57.08;100410.43;478157;109;922747;-77
2022/06/15 00:47:26;;;;;;;3.81;3.51;;;;;;;23.11;57.06;100412.38;481360;109;922562;-75
2022/06/15 00:48:29;;;;;;;3.37;3.03;;;;;;;23.10;57.02;100415.48;480915;109;923176;-76
2022/06/15 00:49:39;;;;;;;4.53;3.47;;;;;;;23.08;57.03;100412.17;476119;111;922806;-75
2022/06/15 00:50:42;;;;;;;5.44;3.57;;;;;;;23.07;57.01;100416.08;480618;110;922684;-75
2022/06/15 00:51:48;;;;;;;5.21;3.30;;;;;;;23.06;57.05;100417.20;478532;109;922552;-76
2022/06/15 00:53:00;;;;;;;6.36;3.09;;;;;;;23.06;57.14;100417.20;478037;109;922700;-77
2022/06/15 00:54:04;;;;;;;3.69;3.06;;;;;;;23.06;57.25;100419.98;481636;109;923003;-75
2022/06/15 00:55:11;;;;;;;5.62;3.11;;;;;;;23.06;57.29;100418.03;477598;109;922526;-75
2022/06/15 00:56:15;;;;;;;5.61;3.29;;;;;;;23.06;57.22;100415.25;475984;111;922664;-75
2022/06/15 00:57:20;;;;;;;3.51;3.09;;;;;;;23.06;57.21;100411.63;473977;109;923074;-76
2022/06/15 00:58:23;;;;;;;3.95;3.65;;;;;;;23.06;57.17;100414.41;476316;111;922703;-74
2022/06/15 00:59:33;;;;;;;4.72;2.91;;;;;;;23.05;57.15;100408.02;479207;110;930948;-75
2022/06/15 01:00:36;;;;;;;4.12;3.73;;;;;;;23.04;57.16;100411.13;478174;109;923055;-76
2022/06/15 01:01:40;;;;;;;4.03;2.95;;;;;;;23.04;57.26;100408.34;481856;109;922934;-76
2022/06/15 01:02:43;;;;;;;2.82;2.54;;;;;;;23.04;57.37;100406.39;476589;109;922551;-78
2022/06/15 01:03:49;;;;;;;3.26;2.76;;;;;;;23.06;57.30;100406.08;474545;109;922627;-76
2022/06/15 01:04:56;;;;;;;3.88;2.89;;;;;;;23.07;57.28;100410.52;475525;109;930494;-77
2022/06/15 01:06:15;;;;;;;4.02;2.95;;;;;;;23.06;57.29;100409.68;483831;109;922561;-77
2022/06/15 01:07:39;;;;;;;4.61;3.11;;;;;;;23.08;57.33;100417.73;483760;108;922570;-77
2022/06/15 01:08:55;;;;;;;11.06;3.61;;;;;;;23.08;57.37;100415.78;481737;109;922555;-75
2022/06/15 01:10:07;;;;;;;3.72;2.98;;;;;;;23.09;57.45;100419.39;476538;110;922633;-76
2022/06/15 01:11:27;;;;;;;3.79;3.08;;;;;;;23.10;57.49;100421.05;475801;109;922835;-75
2022/06/15 01:13:00;;;;;;;4.14;2.82;;;;;;;23.09;57.54;100425.78;480896;108;922663;-77
2022/06/15 01:14:19;;;;;;;3.38;2.57;;;;;;;23.10;57.58;100427.41;484044;107;922547;-75
2022/06/15 01:15:40;;;;;;;4.56;2.99;;;;;;;23.11;57.48;100431.85;483360;108;922098;-76
2022/06/15 01:16:47;;;;;;;4.97;2.98;;;;;;;23.10;57.45;100426.61;485492;108;923181;-73
2022/06/15 01:18:02;;;;;;;3.86;3.09;;;;;;;23.08;57.35;100429.69;478228;110;922282;-75
2022/06/15 01:19:09;;;;;;;4.37;3.21;;;;;;;23.06;57.35;100426.37;481177;108;922864;-75
2022/06/15 01:20:25;;;;;;;5.11;3.09;;;;;;;23.04;57.34;100431.42;481272;108;922220;-76
2022/06/15 01:21:37;;;;;;;3.90;3.07;;;;;;;23.03;57.35;100431.72;479551;107;922298;-74
2022/06/15 01:23:06;;;;;;;3.08;2.64;;;;;;;23.01;57.42;100431.18;482707;110;922758;-75
2022/06/15 01:24:51;;;;;;;7.05;3.18;;;;;;;22.99;57.44;100423.13;482579;110;922435;-75
2022/06/15 01:26:14;;;;;;;2.98;2.68;;;;;;;22.97;57.49;100421.80;460747;113;923183;-77
2022/06/15 01:27:27;;;;;;;5.83;2.95;;;;;;;22.93;57.51;100421.58;464171;114;922428;-76
2022/06/15 01:28:48;;;;;;;3.81;2.96;;;;;;;22.90;57.48;100427.73;464904;114;922389;-75
2022/06/15 01:30:06;;;;;;;3.33;3.04;;;;;;;22.87;57.59;100417.22;460086;114;922456;-76
2022/06/15 01:31:41;;;;;;;3.36;3.01;;;;;;;22.98;57.85;100423.45;478170;110;946723;-74
2022/06/15 01:32:50;;;;;;;3.53;2.92;;;;;;;22.86;57.83;100421.12;466579;114;922069;-76
2022/06/15 01:34:15;;;;;;;3.58;3.07;;;;;;;22.85;57.91;100419.46;467197;112;922345;-76
2022/06/15 01:35:25;;;;;;;3.93;2.81;;;;;;;22.85;58.00;100413.91;463553;114;922291;-75
2022/06/15 01:36:48;;;;;;;2.98;2.71;;;;;;;22.84;58.14;100415.02;464392;114;922368;-76
2022/06/15 01:37:58;;;;;;;4.32;2.80;;;;;;;22.84;57.99;100415.02;463865;114;922420;-76
2022/06/15 01:39:29;;;;;;;4.16;3.03;;;;;;;22.83;58.02;100416.97;463750;114;922349;-77
2022/06/15 01:40:33;;;;;;;;;;;;;;;22.82;58.01;100415.31;475962;112;921663;-76
2022/06/15 01:41:51;;;;;;;3.58;2.78;;;;;;;22.81;57.99;100424.80;472395;112;922373;-76
2022/06/15 01:43:01;;;;;;;5.48;3.43;;;;;;;22.80;58.02;100425.09;471983;112;922325;-75
2022/06/15 01:44:13;;;;;;;3.64;3.01;;;;;;;22.76;58.04;100430.44;472363;112;922579;-75
2022/06/15 01:45:20;;;;;;;4.43;3.14;;;;;;;22.74;58.09;100432.68;472395;112;922696;-76
2022/06/15 01:46:25;;;;;;;3.77;3.17;;;;;;;22.73;58.21;100439.36;472406;112;922586;-75
2022/06/15 01:47:31;;;;;;;4.35;3.10;;;;;;;22.73;58.18;100446.87;472464;112;922196;-76
2022/06/15 01:48:36;;;;;;;5.62;3.55;;;;;;;22.70;58.08;100442.72;472337;112;922265;-76
2022/06/15 01:49:43;;;;;;;5.38;3.35;;;;;;;22.69;58.01;100434.67;472421;112;922330;-76
2022/06/15 01:50:50;;;;;;;3.36;3.06;;;;;;;22.66;58.03;100436.08;472368;112;922144;-74
2022/06/15 01:51:55;;;;;;;4.78;3.06;;;;;;;22.65;58.07;100431.67;472265;112;922416;-74
2022/06/15 01:53:01;;;;;;;4.41;3.56;;;;;;;22.66;58.17;100435.28;472319;112;922235;-78
2022/06/15 01:54:08;;;;;;;4.17;3.15;;;;;;;22.65;58.31;100433.63;472349;112;922505;-77
2022/06/15 01:55:15;;;;;;;4.05;3.04;;;;;;;22.67;58.34;100436.91;472328;112;922170;-77
2022/06/15 01:56:22;;;;;;;5.24;3.26;;;;;;;22.67;58.34;100434.95;463033;114;922147;-75
2022/06/15 01:57:29;;;;;;;5.11;3.03;;;;;;;22.68;58.41;100436.63;463626;112;922395;-78
2022/06/15 01:58:34;;;;;;;3.86;3.21;;;;;;;22.69;58.43;100437.45;462945;114;922920;-77
2022/06/15 01:59:55;;;;;;;3.74;3.43;;;;;;;22.69;58.44;100434.67;463573;112;923211;-74
2022/06/15 02:01:06;;;;;;;2.99;2.69;;;;;;;22.68;58.45;100435.79;462987;114;922800;-77
2022/06/15 02:02:28;;;;;;;3.44;3.11;;;;;;;22.66;58.49;100436.08;459843;112;922434;-76
2022/06/15 02:03:37;;;;;;;5.37;2.92;;;;;;;22.65;58.54;100433.63;472391;112;922537;-76
2022/06/15 02:04:47;;;;;;;4.84;3.35;;;;;;;22.63;58.62;100439.47;471955;112;922302;-77
2022/06/15 02:06:09;;;;;;;8.22;3.26;;;;;;;22.62;58.63;100436.98;471321;112;922087;-74
2022/06/15 02:07:29;;;;;;;3.77;2.93;;;;;;;22.60;58.73;100437.30;472419;112;922217;-75
2022/06/15 02:08:38;;;;;;;4.52;2.91;;;;;;;22.58;58.91;100439.54;451167;117;922504;-76
2022/06/15 02:09:58;;;;;;;4.11;3.13;;;;;;;22.69;59.06;100443.01;478111;110;946520;-74
2022/06/15 02:11:16;;;;;;;3.37;2.92;;;;;;;22.58;59.10;100453.44;465781;113;922415;-76
2022/06/15 02:12:24;;;;;;;4.28;2.84;;;;;;;22.58;59.05;100445.09;466419;114;922504;-76
2022/06/15 02:14:04;;;;;;;4.75;3.25;;;;;;;22.58;59.06;100460.94;463895;113;922317;-76
2022/06/15 02:15:10;;;;;;;4.34;2.79;;;;;;;22.55;59.06;100454.02;457900;116;922461;-76
2022/06/15 02:16:30;;;;;;;4.22;3.07;;;;;;;22.52;59.15;100454.63;457630;116;923142;-76
2022/06/15 02:17:36;;;;;;;3.94;2.61;;;;;;;22.51;59.19;100460.47;457606;116;922822;-75
2022/06/15 02:18:46;;;;;;;3.75;3.23;;;;;;;22.50;59.22;100458.80;457660;116;922568;-76
2022/06/15 02:19:51;;;;;;;4.86;3.12;;;;;;;22.50;59.28;100448.52;457605;116;922794;-76
2022/06/15 02:21:02;;;;;;;5.07;3.04;;;;;;;22.49;59.28;100452.45;456966;115;922340;-76
2022/06/15 02:22:09;;;;;;;5.60;3.16;;;;;;;22.49;59.25;100454.40;457587;115;922545;-77
2022/06/15 02:23:22;;;;;;;5.61;3.91;;;;;;;22.58;59.32;100461.77;477618;110;946841;-76
2022/06/15 02:24:26;;;;;;;3.99;2.96;;;;;;;22.47;59.39;100446.34;471581;112;922498;-76
2022/06/15 02:25:32;;;;;;;4.36;2.77;;;;;;;22.48;59.40;100459.12;471667;112;922496;-76
2022/06/15 02:26:38;;;;;;;3.59;3.32;;;;;;;22.48;59.40;100458.30;471511;112;930419;-77
2022/06/15 02:27:43;;;;;;;4.06;2.98;;;;;;;22.48;59.47;100470.23;471504;112;922665;-77
2022/06/15 02:28:50;;;;;;;4.81;3.42;;;;;;;22.47;59.48;100454.69;471531;112;922736;-76
2022/06/15 02:29:56;;;;;;;4.84;3.01;;;;;;;22.48;59.47;100464.68;465760;112;922622;-76
2022/06/15 02:30:59;;;;;;;4.27;3.50;;;;;;;22.46;59.44;100464.97;454064;117;922527;-75
2022/06/15 02:32:08;;;;;;;5.41;2.93;;;;;;;22.46;59.46;100475.25;454660;114;922501;-76
2022/06/15 02:33:30;;;;;;;4.25;3.08;;;;;;;22.45;59.46;100471.64;453926;117;922659;-76
2022/06/15 02:34:34;;;;;;;3.93;3.39;;;;;;;22.45;59.45;100466.09;457017;114;922893;-74
2022/06/15 02:35:37;;;;;;;3.31;3.02;;;;;;;22.45;59.45;100463.31;463491;114;922900;-75
2022/06/15 02:36:40;;;;;;;3.90;3.33;;;;;;;22.44;59.49;100467.20;463340;114;922488;-76
2022/06/15 02:37:45;;;;;;;4.19;3.24;;;;;;;22.45;59.53;100468.86;463377;114;930575;-78
2022/06/15 02:38:49;;;;;;;4.33;3.64;;;;;;;22.46;59.53;100466.92;453906;116;922717;-76
2022/06/15 02:39:53;;;;;;;4.26;3.62;;;;;;;22.46;59.62;100455.80;456463;116;923071;-76
2022/06/15 02:40:57;;;;;;;3.99;3.42;;;;;;;22.48;59.57;100467.46;456821;114;930529;-76
2022/06/15 02:42:04;;;;;;;3.40;3.04;;;;;;;22.48;59.54;100470.23;454084;116;922878;-76
2022/06/15 02:43:08;;;;;;;4.99;3.01;;;;;;;22.48;59.51;100470.23;452266;114;922638;-77
2022/06/15 02:44:16;;;;;;;3.45;2.95;;;;;;;22.49;59.67;100466.34;463268;114;922944;-76
2022/06/15 02:45:35;;;;;;;3.37;3.03;;;;;;;22.50;59.62;100467.14;463271;114;922513;-77
2022/06/15 02:46:42;;;;;;;4.39;3.24;;;;;;;22.51;59.57;100468.80;463263;114;922517;-77
2022/06/15 02:47:46;;;;;;;3.84;3.42;;;;;;;22.52;59.47;100470.46;462356;114;923017;-75
2022/06/15 02:48:51;;;;;;;6.27;3.54;;;;;;;22.53;59.47;100472.13;463313;114;922522;-76
2022/06/15 02:49:54;;;;;;;4.28;3.56;;;;;;;22.53;59.50;100470.17;463318;114;922590;-77
2022/06/15 02:51:01;;;;;;;5.64;3.70;;;;;;;22.54;59.41;100471.84;463329;114;922558;-76
2022/06/15 02:52:06;;;;;;;4.41;3.15;;;;;;;22.55;59.42;100478.22;463230;114;922470;-76
2022/06/15 02:53:16;;;;;;;3.31;3.01;;;;;;;22.56;59.46;100475.13;463276;114;922572;-76
2022/06/15 02:54:37;;;;;;;3.37;3.08;;;;;;;22.59;59.46;100477.33;463255;114;922591;-77
2022/06/15 02:55:44;;;;;;;5.66;3.14;;;;;;;22.61;59.56;100472.28;462016;114;922595;-75
2022/06/15 02:56:47;;;;;;;4.01;3.06;;;;;;;22.64;59.34;100474.48;463208;114;922743;-77
2022/06/15 02:57:54;;;;;;;4.19;3.46;;;;;;;22.65;59.37;100476.14;463379;114;922577;-76
2022/06/15 02:58:58;;;;;;;6.00;3.52;;;;;;;22.67;59.23;100478.60;461911;114;922656;-75
2022/06/15 03:00:03;;;;;;;3.61;3.29;;;;;;;22.68;59.20;100475.53;463276;114;922561;-77
2022/06/15 03:01:06;;;;;;;3.74;3.11;;;;;;;22.69;59.17;100477.19;463212;114;922530;-76
2022/06/15 03:02:14;;;;;;;6.55;4.15;;;;;;;22.71;59.18;100482.46;463198;114;923796;-76
2022/06/15 03:03:17;;;;;;;4.38;3.81;;;;;;;22.70;59.11;100478.86;463028;114;922574;-76
2022/06/15 03:04:20;;;;;;;4.25;3.38;;;;;;;22.69;59.14;100474.41;463247;114;923136;-76
2022/06/15 03:05:23;;;;;;;5.29;3.26;;;;;;;22.70;59.19;100478.02;463287;114;923245;-76
2022/06/15 03:07:38;;;;;;;4.67;3.74;;;;;;;22.84;59.20;100476.19;476702;110;948175;-75
2022/06/15 03:08:41;;;;;;;4.03;3.41;;;;;;;22.74;59.21;100479.94;462446;113;922541;-78
2022/06/15 03:09:46;;;;;;;4.03;3.50;;;;;;;22.76;59.28;100474.91;456624;115;922444;-76
2022/06/15 03:10:51;;;;;;;5.74;3.77;;;;;;;22.79;59.35;100477.09;450668;117;922844;-77
2022/06/15 03:11:55;;;;;;;4.13;3.56;;;;;;;22.84;59.29;100476.19;450941;116;922792;-76
2022/06/15 03:13:03;;;;;;;4.19;3.36;;;;;;;22.88;59.27;100477.23;457274;115;922523;-76
2022/06/15 03:14:07;;;;;;;4.26;3.53;;;;;;;22.93;59.26;100479.14;457520;114;922549;-75
2022/06/15 03:15:11;;;;;;;6.22;3.85;;;;;;;22.97;59.22;100483.80;457450;116;922633;-75
2022/06/15 03:16:14;;;;;;;4.20;3.24;;;;;;;23.02;59.11;100482.90;457455;115;922952;-76
2022/06/15 03:17:18;;;;;;;5.71;3.27;;;;;;;23.07;58.92;100488.38;450426;117;923198;-75
2022/06/15 03:18:27;;;;;;;8.10;3.88;;;;;;;23.10;58.82;100483.04;450139;115;930624;-76
2022/06/15 03:19:31;;;;;;;3.87;3.57;;;;;;;23.12;58.69;100480.80;457350;115;922737;-75
2022/06/15 03:20:38;;;;;;;8.22;4.42;;;;;;;23.15;58.62;100479.38;457347;116;922569;-76
2022/06/15 03:21:41;;;;;;;5.49;4.90;;;;;;;23.16;58.38;100486.57;457530;115;922502;-76
2022/06/15 03:22:45;;;;;;;8.58;5.54;;;;;;;23.16;58.14;100481.84;450471;117;922927;-76
2022/06/15 03:23:50;;;;;;;5.64;5.13;;;;;;;23.14;58.17;100483.28;442409;117;922771;-76
2022/06/15 03:24:53;;;;;;;5.41;4.81;;;;;;;23.12;58.14;100489.14;450739;116;922702;-76
2022/06/15 03:25:59;;;;;;;7.66;5.76;;;;;;;23.13;58.19;100490.80;450501;117;922680;-76
2022/06/15 03:27:03;;;;;;;5.78;5.32;;;;;;;23.15;58.18;100485.77;450799;116;922867;-76
2022/06/15 03:28:06;;;;;;;5.72;5.17;;;;;;;23.15;58.18;100496.90;457446;115;922593;-76
2022/06/15 03:29:10;;;;;;;7.36;5.83;;;;;;;23.16;58.24;100486.57;457423;114;930525;-75
2022/06/15 03:30:15;;;;;;;9.25;6.41;;;;;;;23.18;58.14;100499.06;450596;117;923011;-76
2022/06/15 03:31:20;;;;;;;6.43;5.87;;;;;;;23.17;58.11;100500.19;451337;116;922670;-75
2022/06/15 03:32:23;;;;;;;6.33;5.69;;;;;;;23.17;58.12;100500.19;457464;116;922995;-76
2022/06/15 03:33:28;;;;;;;6.41;5.80;;;;;;;23.19;58.17;100503.51;456181;114;922536;-75
2022/06/15 03:34:32;;;;;;;7.75;5.86;;;;;;;23.22;58.22;100508.45;457452;115;923257;-76
2022/06/15 03:35:35;;;;;;;6.24;5.73;;;;;;;23.25;58.25;100510.66;457554;115;922840;-77
2022/06/15 03:36:40;;;;;;;8.32;5.61;;;;;;;23.30;58.22;100509.75;456433;116;922853;-76
2022/06/15 03:37:44;;;;;;;7.99;4.52;;;;;;;23.33;58.20;100514.70;457568;115;922913;-77
2022/06/15 03:39:04;;;;;;;5.19;4.42;;;;;;;23.38;58.19;100505.44;457283;114;922569;-76
2022/06/15 03:40:11;;;;;;;4.68;4.28;;;;;;;23.42;58.16;100500.95;457182;115;922950;-77
2022/06/15 03:41:18;;;;;;;4.55;4.02;;;;;;;23.44;58.06;100502.28;450335;117;922653;-75
2022/06/15 03:42:24;;;;;;;5.59;5.13;;;;;;;23.44;58.03;100507.02;450810;116;922732;-77
2022/06/15 03:43:28;;;;;;;5.72;5.23;;;;;;;23.44;58.09;100501.45;457345;114;922766;-75
2022/06/15 03:44:31;;;;;;;6.83;5.73;;;;;;;23.45;58.14;100501.16;457462;116;922560;-77
2022/06/15 03:45:35;;;;;;;5.87;4.71;;;;;;;23.47;58.21;100506.46;457388;116;930495;-75
2022/06/15 03:46:38;;;;;;;5.48;4.12;;;;;;;23.50;58.26;100503.06;457493;116;930540;-76
2022/06/15 03:47:49;;;;;;;4.34;3.94;;;;;;;23.54;58.29;100510.50;456561;115;923104;-76
2022/06/15 03:48:52;;;;;;;5.34;3.60;;;;;;;23.57;58.13;100504.34;457536;114;922588;-77
2022/06/15 03:49:56;;;;;;;4.06;3.75;;;;;;;23.61;58.05;100522.09;457499;115;922681;-76
2022/06/15 03:50:59;;;;;;;3.65;3.19;;;;;;;23.64;58.03;100513.14;457542;116;922506;-75
2022/06/15 03:52:03;;;;;;;25.82;4.03;;;;;;;23.66;57.96;100519.22;450533;117;922695;-77
2022/06/15 03:53:07;;;;;;;3.57;3.27;;;;;;;23.67;57.90;100517.27;450731;116;923454;-77
2022/06/15 03:54:12;;;;;;;3.19;2.87;;;;;;;23.65;57.95;100522.33;457325;114;923015;-77
2022/06/15 03:55:15;;;;;;;4.28;3.53;;;;;;;23.63;58.01;100519.01;457561;115;922571;-77
2022/06/15 03:56:19;;;;;;;3.24;2.87;;;;;;;23.64;58.04;100526.23;457502;115;922583;-77
2022/06/15 03:57:23;;;;;;;3.99;3.14;;;;;;;23.63;58.06;100525.41;450443;117;922962;-76
2022/06/15 03:58:27;;;;;;;3.51;2.94;;;;;;;23.64;58.19;100523.45;450669;116;930764;-77
2022/06/15 03:59:31;;;;;;;3.51;2.89;;;;;;;23.67;58.23;100528.40;457555;116;922548;-77
2022/06/15 04:00:35;;;;;;;3.49;3.23;;;;;;;23.69;58.24;100529.77;457170;115;922560;-76
2022/06/15 04:01:40;;;;;;;4.92;3.19;;;;;;;23.73;58.22;100529.97;457076;115;922991;-76
2022/06/15 04:02:45;;;;;;;4.38;2.98;;;;;;;23.77;58.16;100535.75;457516;115;922768;-77
2022/06/15 04:03:50;;;;;;;3.26;3.00;;;;;;;23.80;58.07;100533.20;457055;114;922763;-77
2022/06/15 04:04:57;;;;;;;3.67;3.37;;;;;;;23.82;58.05;100539.28;457048;115;922588;-75
2022/06/15 04:06:01;;;;;;;4.27;2.99;;;;;;;23.85;58.01;100537.86;457510;116;922533;-76
2022/06/15 04:08:34;;;;;;;3.13;2.86;;;;;;;23.88;57.92;100540.02;456767;115;923230;-77
2022/06/15 04:09:41;;;;;;;3.76;3.02;;;;;;;23.92;57.94;100539.13;457245;115;922644;-78
2022/06/15 04:10:45;;;;;;;3.34;3.00;;;;;;;23.96;57.87;100539.34;450500;117;922882;-76
2022/06/15 04:11:58;;;;;;;3.47;3.25;;;;;;;23.99;57.85;100542.33;450840;116;922625;-76
2022/06/15 04:13:03;;;;;;;3.41;2.86;;;;;;;24.04;57.78;100541.41;457178;115;922753;-75
2022/06/15 04:14:06;;;;;;;5.26;3.35;;;;;;;24.07;57.79;100549.17;457424;114;923119;-77
2022/06/15 04:15:10;;;;;;;3.38;3.04;;;;;;;24.09;57.53;100549.70;457577;115;922515;-76
2022/06/15 04:16:17;;;;;;;3.44;3.05;;;;;;;24.08;57.44;100548.05;457229;115;922928;-77
2022/06/15 04:17:20;;;;;;;3.34;3.14;;;;;;;24.08;57.49;100553.62;457437;116;923713;-75
2022/06/15 04:18:25;;;;;;;3.42;3.14;;;;;;;24.06;57.35;100545.56;456800;114;922678;-76
2022/06/15 04:19:31;;;;;;;3.64;3.34;;;;;;;24.04;57.36;100550.59;457349;116;923357;-76
2022/06/15 04:20:36;;;;;;;3.72;3.13;;;;;;;24.03;57.41;100548.14;457266;116;922507;-76
2022/06/15 04:21:41;;;;;;;3.41;3.04;;;;;;;24.01;57.50;100551.22;456480;115;922644;-78
2022/06/15 04:22:44;;;;;;;4.58;2.95;;;;;;;24.02;57.40;100546.48;457437;116;922584;-76
2022/06/15 04:23:47;;;;;;;5.03;3.44;;;;;;;24.00;57.38;100546.77;457392;114;922595;-76
2022/06/15 04:24:51;;;;;;;3.68;2.98;;;;;;;23.99;57.44;100552.64;457458;116;922905;-76
2022/06/15 04:25:57;;;;;;;5.23;3.63;;;;;;;23.98;57.52;100554.59;457438;115;923078;-76
2022/06/15 04:27:04;;;;;;;3.84;3.54;;;;;;;23.98;57.52;100554.59;457364;115;922527;-77
2022/06/15 04:28:11;;;;;;;6.81;4.84;;;;;;;23.97;57.25;100557.71;457348;116;922532;-76
2022/06/15 04:29:14;;;;;;;5.13;3.53;;;;;;;23.94;57.11;100555.52;457360;114;930516;-76
2022/06/15 04:30:18;;;;;;;5.69;3.75;;;;;;;23.90;57.02;100560.05;456467;116;922670;-75
2022/06/15 04:31:22;;;;;;;4.22;3.83;;;;;;;23.84;56.97;100552.91;456898;115;922553;-78
2022/06/15 04:32:26;;;;;;;4.46;3.65;;;;;;;23.79;56.96;100566.91;457332;116;922663;-75
2022/06/15 04:33:30;;;;;;;6.83;3.68;;;;;;;23.75;57.00;100565.87;457297;114;925593;-76
2022/06/15 04:34:34;;;;;;;6.42;3.24;;;;;;;23.72;57.08;100564.50;449519;118;922640;-75
2022/06/15 04:35:38;;;;;;;5.53;2.82;;;;;;;23.71;57.06;100564.83;449608;118;922512;-77
2022/06/15 04:36:44;;;;;;;3.97;3.00;;;;;;;23.71;57.02;100575.97;449403;117;922616;-75
2022/06/15 04:37:49;;;;;;;3.14;2.87;;;;;;;23.69;56.81;100568.73;449373;118;923550;-76
2022/06/15 04:38:54;;;;;;;3.82;2.51;;;;;;;23.66;56.63;100571.28;448786;116;922628;-76
2022/06/15 04:39:59;;;;;;;3.77;2.13;;;;;;;23.60;56.58;100576.09;449408;118;922672;-76
2022/06/15 04:41:03;;;;;;;3.31;2.44;;;;;;;23.49;56.36;100582.94;449613;118;922655;-76
2022/06/15 04:42:09;;;;;;;4.28;2.19;;;;;;;23.37;56.30;100573.38;449421;117;922612;-76
2022/06/15 04:43:14;;;;;;;3.87;2.11;;;;;;;23.23;56.66;100578.84;449422;118;922573;-77
2022/06/15 04:44:17;;;;;;;2.16;1.84;;;;;;;23.09;56.82;100587.10;449652;117;923036;-77
2022/06/15 04:45:22;;;;;;;3.57;1.92;;;;;;;22.98;57.03;100581.96;449386;118;923125;-79
2022/06/15 04:46:29;;;;;;;2.24;1.78;;;;;;;22.88;57.30;100578.16;448496;117;922818;-76
2022/06/15 04:47:34;;;;;;;2.94;1.60;;;;;;;22.83;57.64;100583.78;449360;118;922610;-75
2022/06/15 04:48:38;;;;;;;2.74;2.19;;;;;;;22.80;58.30;100578.83;442776;117;922775;-77
2022/06/15 04:49:40;;;;;;;4.94;2.14;;;;;;;22.80;58.30;100578.83;442959;118;930589;-75
2022/06/15 04:50:45;;;;;;;2.98;1.52;;;;;;;22.81;58.05;100569.37;449533;118;922562;-77
2022/06/15 04:51:48;;;;;;;3.08;2.01;;;;;;;22.85;58.09;100580.72;442839;119;922719;-76
2022/06/15 04:52:51;;;;;;;2.78;1.89;;;;;;;22.86;57.88;100579.59;443056;118;922808;-75
2022/06/15 04:53:54;;;;;;;7.93;2.80;;;;;;;22.86;57.79;100574.03;449574;116;922593;-77
2022/06/15 04:54:57;;;;;;;4.68;1.91;;;;;;;22.85;57.65;100575.98;449554;118;922598;-75
2022/06/15 04:56:01;;;;;;;7.00;2.14;;;;;;;22.84;57.61;100573.49;442779;119;930589;-76
2022/06/15 04:57:04;;;;;;;4.02;1.89;;;;;;;22.83;57.68;100571.83;435797;120;922614;-75
2022/06/15 04:58:08;;;;;;;2.37;1.78;;;;;;;22.83;57.62;100572.66;443072;118;922682;-76
2022/06/15 04:59:13;;;;;;;6.75;1.74;;;;;;;22.83;57.47;100574.61;449415;116;922593;-75
2022/06/15 05:00:18;;;;;;;2.01;1.81;;;;;;;22.81;57.44;100574.93;449602;117;922583;-76
2022/06/15 05:01:21;;;;;;;1.74;1.49;;;;;;;22.81;57.42;100565.76;449412;118;930211;-76
2022/06/15 05:02:24;;;;;;;3.75;1.83;;;;;;;22.80;57.40;100578.83;449582;118;930323;-75
2022/06/15 05:03:28;;;;;;;3.69;1.87;;;;;;;22.79;57.45;100573.55;449558;116;922646;-77
2022/06/15 05:04:32;;;;;;;4.72;2.05;;;;;;;22.81;57.39;100574.09;453493;116;922846;-76
2022/06/15 05:05:35;;;;;;;4.47;2.21;;;;;;;22.78;57.06;100575.50;447854;118;922987;-75
2022/06/15 05:06:41;;;;;;;4.87;2.17;;;;;;;22.72;56.96;100578.63;446819;116;923175;-76
2022/06/15 05:07:46;;;;;;;3.18;1.70;;;;;;;22.66;57.26;100577.03;454412;116;922578;-74
2022/06/15 05:08:49;;;;;;;1.99;1.56;;;;;;;22.64;57.55;100570.92;452641;117;922733;-77
2022/06/15 05:09:52;;;;;;;4.09;1.92;;;;;;;22.67;57.53;100573.09;452697;117;922629;-76
2022/06/15 05:10:55;;;;;;;2.08;1.79;;;;;;;22.68;57.52;100571.98;452689;117;922569;-75